createdAt,value
2019-03-01T00:01:31.317Z,47.73
2019-03-01T00:04:12.053Z,44.50
2019-03-01T00:06:58.066Z,45.15
2019-03-01T00:09:40.460Z,45.37
2019-03-01T00:12:43.755Z,46.75
2019-03-01T00:15:28.878Z,45.63
2019-03-01T00:18:05.577Z,44.27
2019-03-01T00:20:50.735Z,43.17
2019-03-01T00:23:56.891Z,42.83
2019-03-01T00:27:14.912Z,44.93
2019-03-01T00:30:15.566Z,44.53
2019-03-01T00:33:03.570Z,42.27
2019-03-01T00:36:21.072Z,43.37
2019-03-01T00:39:09.599Z,42.70
2019-03-01T00:41:49.066Z,40.70
2019-03-01T00:44:36.174Z,43.87
2019-03-01T00:47:10.221Z,42.03
2019-03-01T00:49:44.151Z,40.10
2019-03-01T00:52:18.246Z,40.67
2019-03-01T00:54:52.240Z,39.33
2019-03-01T00:57:27.621Z,39.70
2019-03-01T01:00:01.598Z,38.33
2019-03-01T01:02:37.118Z,37.30
2019-03-01T01:05:11.319Z,38.60
2019-03-01T01:07:45.309Z,39.57
2019-03-01T01:10:21.538Z,39.03
2019-03-01T01:12:56.942Z,37.03
2019-03-01T01:15:30.895Z,36.70
2019-03-01T01:18:04.970Z,37.60
2019-03-01T01:20:38.844Z,39.17
2019-03-01T01:23:12.805Z,38.20
2019-03-01T01:25:48.894Z,38.13
2019-03-01T01:28:24.277Z,37.23
2019-03-01T01:30:58.249Z,40.30
2019-03-01T01:33:36.766Z,39.67
2019-03-01T01:36:10.804Z,40.70
2019-03-01T01:38:44.823Z,39.47
2019-03-01T01:41:20.256Z,47.80
2019-03-01T01:43:54.138Z,41.60
2019-03-01T01:46:28.089Z,42.57
2019-03-01T01:49:03.528Z,43.13
2019-03-01T01:51:39.018Z,42.85
2019-03-01T01:54:12.922Z,42.70
2019-03-01T01:56:47.647Z,42.53
2019-03-01T01:59:21.605Z,40.90
2019-03-01T02:01:57.247Z,41.60
2019-03-01T02:04:31.185Z,41.33
2019-03-01T02:07:05.826Z,47.30
2019-03-01T02:09:40.309Z,41.20
2019-03-01T02:12:15.804Z,38.73
2019-03-01T02:14:49.930Z,35.68
2019-03-01T02:17:24.072Z,34.97
2019-03-01T02:20:02.327Z,36.83
2019-03-01T02:22:38.381Z,35.97
2019-03-01T02:25:14.927Z,32.30
2019-03-01T02:27:50.254Z,33.77
2019-03-01T02:30:37.898Z,39.63
2019-03-01T02:33:13.483Z,33.40
2019-03-01T02:35:51.232Z,34.50
2019-03-01T02:38:25.228Z,36.67
2019-03-01T02:41:00.665Z,36.70
2019-03-01T02:43:36.416Z,39.07
2019-03-01T02:46:10.358Z,40.47
2019-03-01T02:48:44.507Z,40.17
2019-03-01T02:51:18.516Z,37.73
2019-03-01T02:53:53.976Z,41.45
2019-03-01T02:56:27.986Z,44.53
2019-03-01T02:59:01.957Z,43.80
2019-03-01T03:01:35.902Z,42.10
2019-03-01T03:04:09.886Z,42.97
2019-03-01T03:06:45.510Z,44.90
2019-03-01T03:09:19.825Z,46.03
2019-03-01T03:11:53.812Z,46.47
2019-03-01T03:14:27.776Z,46.98
2019-03-01T03:17:01.967Z,47.65
2019-03-01T03:19:35.966Z,47.20
2019-03-01T03:22:09.828Z,46.83
2019-03-01T03:24:43.884Z,46.70
2019-03-01T03:27:18.890Z,45.98
2019-03-01T03:29:52.869Z,45.00
2019-03-01T03:32:30.208Z,45.97
2019-03-01T03:35:04.262Z,47.50
2019-03-01T03:37:40.192Z,47.07
2019-03-01T03:40:17.860Z,46.73
2019-03-01T03:42:53.397Z,49.77
2019-03-01T03:45:29.382Z,49.67
2019-03-01T03:48:05.098Z,49.03
2019-03-01T03:50:40.683Z,44.67
2019-03-01T03:53:14.347Z,43.37
2019-03-01T03:55:48.911Z,43.42
2019-03-01T03:58:22.748Z,42.55
2019-03-01T04:00:56.534Z,42.87
2019-03-01T04:03:30.380Z,42.23
2019-03-01T04:06:05.385Z,40.47
2019-03-01T04:08:39.336Z,41.00
2019-03-01T04:11:13.065Z,40.90
2019-03-01T04:13:46.727Z,38.57
2019-03-01T04:16:20.394Z,42.27
2019-03-01T04:18:53.842Z,45.57
2019-03-01T04:21:27.550Z,44.87
2019-03-01T04:24:01.333Z,50.60
2019-03-01T04:26:34.749Z,51.47
2019-03-01T04:29:08.633Z,53.00
2019-03-01T04:31:42.288Z,54.57
2019-03-01T04:34:16.023Z,57.80
2019-03-01T04:36:49.726Z,56.87
2019-03-01T04:39:23.168Z,56.95
2019-03-01T04:41:56.737Z,55.43
2019-03-01T04:44:30.254Z,52.10
2019-03-01T04:47:04.183Z,45.33
2019-03-01T04:49:38.074Z,45.83
2019-03-01T04:52:34.594Z,40.03
2019-03-01T04:55:11.835Z,35.47
2019-03-01T04:57:45.348Z,37.10
2019-03-01T05:00:22.026Z,30.00
2019-03-01T05:02:58.545Z,26.33
2019-03-01T05:05:32.359Z,27.23
2019-03-01T05:08:05.896Z,26.90
2019-03-01T05:10:39.474Z,27.87
2019-03-01T05:13:12.964Z,22.50
2019-03-01T05:15:46.524Z,21.40
2019-03-01T05:18:20.021Z,20.00
2019-03-01T05:20:54.456Z,19.27
2019-03-01T05:23:27.995Z,17.40
2019-03-01T05:26:01.427Z,17.37
2019-03-01T05:28:36.121Z,16.87
2019-03-01T05:31:09.534Z,16.30
2019-03-01T05:33:42.883Z,17.07
2019-03-01T05:36:16.274Z,13.97
2019-03-01T05:38:49.814Z,13.00
2019-03-01T05:41:26.023Z,11.65
2019-03-01T05:43:59.373Z,11.00
2019-03-01T05:46:32.889Z,9.20
2019-03-01T05:49:06.291Z,9.43
2019-03-01T05:51:41.337Z,9.57
2019-03-01T05:54:14.613Z,9.83
2019-03-01T05:56:49.389Z,9.83
2019-03-01T05:59:24.435Z,10.27
2019-03-01T06:02:09.173Z,9.97
2019-03-01T06:04:46.729Z,10.43
2019-03-01T06:07:35.367Z,9.98
2019-03-01T06:10:17.523Z,10.57
2019-03-01T06:13:20.026Z,11.67
2019-03-01T06:16:13.827Z,11.75
2019-03-01T06:19:16.205Z,11.97
2019-03-01T06:22:27.893Z,11.67
2019-03-01T06:25:20.313Z,11.53
2019-03-01T06:28:11.438Z,13.18
2019-03-01T06:31:09.076Z,13.17
2019-03-01T06:34:09.537Z,13.23
2019-03-01T06:36:59.840Z,11.77
2019-03-01T06:39:56.741Z,11.80
2019-03-01T06:42:33.404Z,12.47
2019-03-01T06:45:56.405Z,13.23
2019-03-01T06:48:29.718Z,12.80
2019-03-01T06:51:02.965Z,12.83
2019-03-01T06:53:37.275Z,13.17
2019-03-01T06:56:10.773Z,12.60
2019-03-01T06:58:44.202Z,12.57
2019-03-01T07:01:20.256Z,12.93
2019-03-01T07:03:53.498Z,13.83
2019-03-01T07:06:26.921Z,13.97
2019-03-01T07:09:00.189Z,14.40
2019-03-01T07:11:36.729Z,14.00
2019-03-01T07:14:10.128Z,13.85
2019-03-01T07:17:13.813Z,13.87
2019-03-01T07:19:48.678Z,13.03
2019-03-01T07:22:22.104Z,12.77
2019-03-01T07:24:58.911Z,13.50
2019-03-01T07:27:32.462Z,12.57
2019-03-01T07:30:06.900Z,13.83
2019-03-01T07:32:40.337Z,13.77
2019-03-01T07:35:14.118Z,13.83
2019-03-01T07:37:48.459Z,14.13
2019-03-01T07:40:22.060Z,13.47
2019-03-01T07:43:00.152Z,13.45
2019-03-01T07:45:34.463Z,12.73
2019-03-01T07:48:08.102Z,13.03
2019-03-01T07:50:41.567Z,12.53
2019-03-01T07:53:15.229Z,13.17
2019-03-01T07:55:48.505Z,12.77
2019-03-01T07:58:25.256Z,12.90
2019-03-01T08:00:56.517Z,11.83
2019-03-01T08:03:29.766Z,11.75
2019-03-01T08:06:03.168Z,11.60
2019-03-01T08:08:38.812Z,12.03
2019-03-01T08:11:11.250Z,12.00
2019-03-01T08:13:45.059Z,11.68
2019-03-01T08:16:20.083Z,11.17
2019-03-01T08:18:53.151Z,11.83
2019-03-01T08:21:26.502Z,11.60
2019-03-01T08:23:59.856Z,12.60
2019-03-01T08:26:34.939Z,11.67
2019-03-01T08:29:09.637Z,12.23
2019-03-01T08:31:44.589Z,12.17
2019-03-01T08:34:18.659Z,12.60
2019-03-01T08:36:52.005Z,12.83
2019-03-01T08:39:26.672Z,12.90
2019-03-01T08:42:01.405Z,13.80
2019-03-01T08:44:35.913Z,13.03
2019-03-01T08:47:10.781Z,14.10
2019-03-01T08:49:47.104Z,13.90
2019-03-01T08:52:20.663Z,13.30
2019-03-01T08:54:58.829Z,13.87
2019-03-01T08:57:30.204Z,13.87
2019-03-01T09:00:03.560Z,13.50
2019-03-01T09:02:38.328Z,14.27
2019-03-01T09:05:14.814Z,14.77
2019-03-01T09:07:49.746Z,14.40
2019-03-01T09:10:24.633Z,14.13
2019-03-01T09:12:59.200Z,14.95
2019-03-01T09:15:36.776Z,14.40
2019-03-01T09:18:14.583Z,15.27
2019-03-01T09:20:49.645Z,15.73
2019-03-01T09:23:27.388Z,15.77
2019-03-01T09:26:01.024Z,15.70
2019-03-01T09:28:38.520Z,15.87
2019-03-01T09:31:09.753Z,16.60
2019-03-01T09:33:43.890Z,17.00
2019-03-01T09:36:21.352Z,16.97
2019-03-01T09:38:58.307Z,16.83
2019-03-01T09:41:36.654Z,17.53
2019-03-01T09:44:09.128Z,17.27
2019-03-01T09:46:43.970Z,16.80
2019-03-01T09:49:21.419Z,19.07
2019-03-01T09:51:54.182Z,17.53
2019-03-01T09:54:28.315Z,17.93
2019-03-01T09:57:02.590Z,17.70
2019-03-01T09:59:36.283Z,17.80
2019-03-01T10:02:12.304Z,17.30
2019-03-01T10:04:46.114Z,17.97
2019-03-01T10:07:21.006Z,18.20
2019-03-01T10:09:58.234Z,18.20
2019-03-01T10:12:33.113Z,17.60
2019-03-01T10:15:09.115Z,18.53
2019-03-01T10:17:44.103Z,17.17
2019-03-01T10:20:19.292Z,17.77
2019-03-01T10:22:56.596Z,17.63
2019-03-01T10:25:32.660Z,17.57
2019-03-01T10:28:11.289Z,17.87
2019-03-01T10:30:46.488Z,18.67
2019-03-01T10:33:23.963Z,17.80
2019-03-01T10:36:03.216Z,18.63
2019-03-01T10:38:38.344Z,18.87
2019-03-01T10:41:14.702Z,18.30
2019-03-01T10:43:49.146Z,18.93
2019-03-01T10:46:23.612Z,19.23
2019-03-01T10:48:58.272Z,18.80
2019-03-01T10:51:35.837Z,19.27
2019-03-01T10:54:10.285Z,20.27
2019-03-01T10:56:44.437Z,21.10
2019-03-01T10:59:18.761Z,20.23
2019-03-01T11:01:54.869Z,20.00
2019-03-01T11:04:29.433Z,20.07
2019-03-01T11:07:04.616Z,20.40
2019-03-01T11:09:42.314Z,20.97
2019-03-01T11:12:18.245Z,20.53
2019-03-01T11:14:53.362Z,20.03
2019-03-01T11:17:27.841Z,21.27
2019-03-01T11:20:02.231Z,22.17
2019-03-01T11:22:36.616Z,22.40
2019-03-01T11:25:21.607Z,22.77
2019-03-01T11:27:57.356Z,23.33
2019-03-01T11:30:35.461Z,23.20
2019-03-01T11:33:14.665Z,22.47
2019-03-01T11:35:48.670Z,22.80
2019-03-01T11:38:22.792Z,23.70
2019-03-01T11:40:56.668Z,24.07
2019-03-01T11:43:31.770Z,24.57
2019-03-01T11:46:05.603Z,23.63
2019-03-01T11:48:44.168Z,23.60
2019-03-01T11:51:27.848Z,24.30
2019-03-01T11:53:59.298Z,24.07
2019-03-01T11:56:34.577Z,24.40
2019-03-01T11:59:09.768Z,26.80
2019-03-01T12:01:46.993Z,24.67
2019-03-01T12:04:21.733Z,26.17
2019-03-01T12:06:57.572Z,26.33
2019-03-01T12:09:32.612Z,26.27
2019-03-01T12:12:07.311Z,26.13
2019-03-01T12:14:41.015Z,29.00
2019-03-01T12:17:16.420Z,26.60
2019-03-01T12:19:50.102Z,26.43
2019-03-01T12:22:24.053Z,26.70
2019-03-01T12:24:57.474Z,27.70
2019-03-01T12:27:32.744Z,27.07
2019-03-01T12:30:11.508Z,27.67
2019-03-01T12:32:46.395Z,29.60
2019-03-01T12:35:21.151Z,27.60
2019-03-01T12:37:55.430Z,28.43
2019-03-01T12:40:30.889Z,29.47
2019-03-01T12:43:05.354Z,32.48
2019-03-01T12:45:39.658Z,38.55
2019-03-01T12:48:14.236Z,35.50
2019-03-01T12:50:50.371Z,35.13
2019-03-01T12:53:25.390Z,33.83
2019-03-01T12:56:00.247Z,34.50
2019-03-01T12:58:34.732Z,34.27
2019-03-01T13:01:09.250Z,39.47
2019-03-01T13:03:44.641Z,38.77
2019-03-01T13:06:18.872Z,37.87
2019-03-01T13:08:54.829Z,42.53
2019-03-01T13:11:29.672Z,37.90
2019-03-01T13:14:36.768Z,39.07
2019-03-01T13:16:50.487Z,38.43
2019-03-01T13:19:26.102Z,36.07
2019-03-01T13:22:00.105Z,34.97
2019-03-01T13:24:35.127Z,33.67
2019-03-01T13:27:10.825Z,33.13
2019-03-01T13:29:45.672Z,33.63
2019-03-01T13:32:20.036Z,35.10
2019-03-01T13:34:55.358Z,35.73
2019-03-01T13:37:29.942Z,37.83
2019-03-01T13:40:04.615Z,39.67
2019-03-01T13:42:39.087Z,40.53
2019-03-01T13:45:15.994Z,41.53
2019-03-01T13:47:50.967Z,42.88
2019-03-01T13:50:25.287Z,42.57
2019-03-01T13:53:01.935Z,42.13
2019-03-01T13:55:36.711Z,39.83
2019-03-01T13:58:12.407Z,40.63
2019-03-01T14:00:48.756Z,38.57
2019-03-01T14:03:27.481Z,38.87
2019-03-01T14:06:02.144Z,38.47
2019-03-01T14:08:37.492Z,40.48
2019-03-01T14:11:15.150Z,40.43
2019-03-01T14:13:51.135Z,40.33
2019-03-01T14:16:25.468Z,40.30
2019-03-01T14:18:59.889Z,40.37
2019-03-01T14:21:34.727Z,38.30
2019-03-01T14:24:12.763Z,38.73
2019-03-01T14:26:50.587Z,38.70
2019-03-01T14:29:24.469Z,39.50
2019-03-01T14:31:58.326Z,39.10
2019-03-01T14:34:33.505Z,38.35
2019-03-01T14:37:15.107Z,40.40
2019-03-01T14:39:50.090Z,41.80
2019-03-01T14:42:25.461Z,43.73
2019-03-01T14:45:02.697Z,43.35
2019-03-01T14:47:37.730Z,42.53
2019-03-01T14:50:14.992Z,43.23
2019-03-01T14:52:56.886Z,44.20
2019-03-01T14:55:32.453Z,51.00
2019-03-01T14:58:26.052Z,48.33
2019-03-01T15:01:17.747Z,46.50
2019-03-01T15:03:54.711Z,47.37
2019-03-01T15:06:28.438Z,47.70
2019-03-01T15:09:03.877Z,50.60
2019-03-01T15:11:41.204Z,57.40
2019-03-01T15:14:14.654Z,51.03
2019-03-01T15:16:48.280Z,50.70
2019-03-01T15:19:24.104Z,50.90
2019-03-01T15:21:58.194Z,50.87
2019-03-01T15:24:33.323Z,51.00
2019-03-01T15:27:06.966Z,55.25
2019-03-01T15:29:40.642Z,54.50
2019-03-01T15:32:15.172Z,55.90
2019-03-01T15:34:51.908Z,57.40
2019-03-01T15:37:31.023Z,62.17
2019-03-01T15:40:08.135Z,61.35
2019-03-01T15:42:43.673Z,59.57
2019-03-01T15:45:18.801Z,63.43
2019-03-01T15:47:53.958Z,61.63
2019-03-01T15:50:29.827Z,65.23
2019-03-01T15:53:03.941Z,66.07
2019-03-01T15:55:40.644Z,67.63
2019-03-01T15:58:15.339Z,66.20
2019-03-01T16:00:53.450Z,67.42
2019-03-01T16:03:27.439Z,70.43
2019-03-01T16:06:02.003Z,72.07
2019-03-01T16:08:36.924Z,72.37
2019-03-01T16:11:12.643Z,69.23
2019-03-01T16:13:49.052Z,68.70
2019-03-01T16:16:24.598Z,69.90
2019-03-01T16:18:59.767Z,71.43
2019-03-01T16:21:36.509Z,72.30
2019-03-01T16:24:09.265Z,73.23
2019-03-01T16:26:43.061Z,74.00
2019-03-01T16:29:17.181Z,68.60
2019-03-01T16:31:50.845Z,73.00
2019-03-01T16:34:25.058Z,70.30
2019-03-01T16:36:58.679Z,70.53
2019-03-01T16:39:33.732Z,70.33
2019-03-01T16:42:14.531Z,70.90
2019-03-01T16:44:47.786Z,70.47
2019-03-01T16:47:23.269Z,68.85
2019-03-01T16:49:58.915Z,70.67
2019-03-01T16:52:33.111Z,68.47
2019-03-01T16:55:08.253Z,68.03
2019-03-01T16:57:44.435Z,67.83
2019-03-01T17:00:24.983Z,67.05
2019-03-01T17:03:10.098Z,69.10
2019-03-01T17:05:44.294Z,64.03
2019-03-01T17:08:18.154Z,67.40
2019-03-01T17:10:53.887Z,64.93
2019-03-01T17:13:28.086Z,64.17
2019-03-01T17:16:01.618Z,65.80
2019-03-01T17:18:36.417Z,65.47
2019-03-01T17:21:12.532Z,64.10
2019-03-01T17:23:45.938Z,63.90
2019-03-01T17:26:19.629Z,65.62
2019-03-01T17:28:53.665Z,65.30
2019-03-01T17:31:27.889Z,63.80
2019-03-01T17:34:02.111Z,64.87
2019-03-01T17:36:35.527Z,65.77
2019-03-01T17:39:09.817Z,65.40
2019-03-01T17:41:45.590Z,62.85
2019-03-01T17:44:18.304Z,62.87
2019-03-01T17:46:53.348Z,64.43
2019-03-01T17:49:29.722Z,63.63
2019-03-01T17:52:01.424Z,64.60
2019-03-01T17:54:36.901Z,63.63
2019-03-01T17:57:10.930Z,61.80
2019-03-01T17:59:48.311Z,63.90
2019-03-01T18:02:22.760Z,63.08
2019-03-01T18:04:56.571Z,64.20
2019-03-01T18:07:30.605Z,63.63
2019-03-01T18:10:04.130Z,61.73
2019-03-01T18:12:37.694Z,61.47
2019-03-01T18:15:17.576Z,63.20
2019-03-01T18:17:52.441Z,61.63
2019-03-01T18:20:26.471Z,62.50
2019-03-01T18:23:02.366Z,63.37
2019-03-01T18:25:35.297Z,62.00
2019-03-01T18:28:09.508Z,64.03
2019-03-01T18:30:52.056Z,63.50
2019-03-01T18:33:27.358Z,62.60
2019-03-01T18:36:07.963Z,62.60
2019-03-01T18:38:42.681Z,65.10
2019-03-01T18:41:18.401Z,70.30
2019-03-01T18:43:53.699Z,72.73
2019-03-01T18:46:28.390Z,70.33
2019-03-01T18:49:02.691Z,74.63
2019-03-01T18:51:42.292Z,85.47
2019-03-01T18:54:17.243Z,79.80
2019-03-01T18:56:51.106Z,86.97
2019-03-01T18:59:31.820Z,90.00
2019-03-01T19:02:02.852Z,90.10
2019-03-01T19:04:39.524Z,94.20
2019-03-01T19:07:14.061Z,88.70
2019-03-01T19:09:52.247Z,93.70
2019-03-01T19:12:26.228Z,92.87
2019-03-01T19:15:00.451Z,93.50
2019-03-01T19:17:40.510Z,96.07
2019-03-01T19:20:32.388Z,93.43
2019-03-01T19:23:06.714Z,92.10
2019-03-01T19:25:40.113Z,90.90
2019-03-01T19:28:13.335Z,94.85
2019-03-01T19:30:49.054Z,96.20
2019-03-01T19:33:22.454Z,92.87
2019-03-01T19:35:56.975Z,94.20
2019-03-01T19:38:31.025Z,97.60
2019-03-01T19:41:04.346Z,96.73
2019-03-01T19:43:37.710Z,103.80
2019-03-01T19:46:12.610Z,100.93
2019-03-01T19:48:46.893Z,99.73
2019-03-01T19:51:20.204Z,98.43
2019-03-01T19:53:53.832Z,104.70
2019-03-01T19:56:27.140Z,106.10
2019-03-01T19:59:02.157Z,101.37
2019-03-01T20:01:35.452Z,106.00
2019-03-01T20:04:09.393Z,112.12
2019-03-01T20:06:43.491Z,116.43
2019-03-01T20:09:16.961Z,112.63
2019-03-01T20:11:50.321Z,120.43
2019-03-01T20:14:23.635Z,120.07
2019-03-01T20:16:59.005Z,118.83
2019-03-01T20:19:35.236Z,114.73
2019-03-01T20:22:10.474Z,116.85
2019-03-01T20:24:43.885Z,119.45
2019-03-01T20:27:17.267Z,123.67
2019-03-01T20:29:52.494Z,119.83
2019-03-01T20:32:25.181Z,117.83
2019-03-01T20:34:59.700Z,121.97
2019-03-01T20:37:33.037Z,119.63
2019-03-01T20:40:07.457Z,121.53
2019-03-01T20:42:40.807Z,120.93
2019-03-01T20:45:29.882Z,122.13
2019-03-01T20:48:04.014Z,121.05
2019-03-01T20:50:37.496Z,118.30
2019-03-01T20:53:13.319Z,117.90
2019-03-01T20:55:45.553Z,116.80
2019-03-01T20:58:22.104Z,117.43
2019-03-01T21:03:58.175Z,114.33
2019-03-01T21:06:31.603Z,113.67
2019-03-01T21:09:06.935Z,114.40
2019-03-01T21:11:41.699Z,109.47
2019-03-01T21:14:15.102Z,112.33
2019-03-01T21:16:50.108Z,106.13
2019-03-01T21:19:23.391Z,109.27
2019-03-01T21:21:56.730Z,104.83
2019-03-01T21:24:31.943Z,108.40
2019-03-01T21:27:04.623Z,103.70
2019-03-01T21:29:37.831Z,100.30
2019-03-01T21:32:11.779Z,103.50
2019-03-01T21:34:45.149Z,99.17
2019-03-01T21:37:18.438Z,93.73
2019-03-01T21:39:51.673Z,93.53
2019-03-01T21:42:24.926Z,89.85
2019-03-01T21:44:58.200Z,84.50
2019-03-01T21:47:31.483Z,82.33
2019-03-01T21:50:07.653Z,83.53
2019-03-01T21:52:40.102Z,80.30
2019-03-01T21:55:16.487Z,75.73
2019-03-01T21:57:50.439Z,76.53
2019-03-01T22:00:34.738Z,75.63
2019-03-01T22:03:07.816Z,75.23
2019-03-01T22:05:41.147Z,75.55
2019-03-01T22:08:14.327Z,72.70
2019-03-01T22:10:47.686Z,70.30
2019-03-01T22:13:20.877Z,68.70
2019-03-01T22:15:54.195Z,62.57
2019-03-01T22:18:28.932Z,63.10
2019-03-01T22:21:02.188Z,60.87
2019-03-01T22:23:35.444Z,60.33
2019-03-01T22:26:09.597Z,61.20
2019-03-01T22:28:43.156Z,56.73
2019-03-01T22:31:16.406Z,58.22
2019-03-01T22:33:52.594Z,58.30
2019-03-01T22:36:25.985Z,55.03
2019-03-01T22:39:00.639Z,53.67
2019-03-01T22:41:35.635Z,52.80
2019-03-01T22:44:08.347Z,51.77
2019-03-01T22:46:43.085Z,51.55
2019-03-01T22:49:16.362Z,52.50
2019-03-01T22:51:52.626Z,52.27
2019-03-01T22:54:25.417Z,51.73
2019-03-01T22:56:58.963Z,54.73
2019-03-01T22:59:32.272Z,53.10
2019-03-01T23:02:08.105Z,53.17
2019-03-01T23:04:48.843Z,53.80
2019-03-01T23:07:26.440Z,51.73
2019-03-01T23:10:03.549Z,49.83
2019-03-01T23:12:40.549Z,52.87
2019-03-01T23:15:14.434Z,49.53
2019-03-01T23:17:48.314Z,51.47
2019-03-01T23:20:26.134Z,50.40
2019-03-01T23:22:57.171Z,52.10
2019-03-01T23:25:30.478Z,50.93
2019-03-01T23:28:04.027Z,51.60
2019-03-01T23:30:43.056Z,49.30
2019-03-01T23:33:14.205Z,50.43
2019-03-01T23:35:53.044Z,50.33
2019-03-01T23:38:24.742Z,50.47
2019-03-01T23:40:58.118Z,51.60
2019-03-01T23:43:31.777Z,51.77
2019-03-01T23:46:05.248Z,49.43
2019-03-01T23:48:38.726Z,50.40
2019-03-01T23:51:22.692Z,51.63
2019-03-01T23:53:56.057Z,50.40
2019-03-01T23:56:30.542Z,51.93
2019-03-01T23:59:05.166Z,51.25
